Main page
METAR-TAF:

METAR-TAF

Airports :

Antananarivo, Madagascar

Ivato International Airport

latitude: 18-48S, longitude: 047-29E, elevation: 1279 m

Current weather observation

The report was made 6 minutes ago, at 20:30 UTC
Wind 1 kt from the East
Temperature 10°C
Humidity 93%
Pressure 1023 hPa
Visibility 10 km or more
Few clouds at a height of 1700 ft

METAR: FMMI 202030Z 10001KT 9999 FEW017 10/09 Q1023 NOSIG

Time: 23:36 (20:36 UTC)

Forecast

The report was made 3 hours and 36 minutes ago, at 17:00 UTC
Forecast valid from 20 at 18 UTC to 21 at 24 UTC
Wind kt from the North
Visibility 10 km or more
Few clouds at a height of 1500 ft
Probability 40%
from 21 at 00 UTC to 21 at 07 UTC
Visibility: 0200 m
Broken clouds at a height of 400 ft
fog
Becoming
from 21 at 07 UTC to 21 at 10 UTC
Wind 10 kt from the Southeast
Becoming
from 21 at 15 UTC to 21 at 18 UTC
Wind kt from the North

TAF: FMMI 201700Z 2018/2124 00000KT 9999 FEW015 PROB40 2100/2107 0200 FG BKN004 BECMG 2107/2110 14010KT BECMG 2115/2118 00000KT

Weather observations and forecasts of more than 4000 airports (METAR and TAF reports).

The available stations are represented by yellow and red dots on the map.

Hover mouse over dot to see the name of the station.

Then click to see weather observations and forecasts.

To change the map : click on the green buttons with a black cross to zoom in, on the green button with a dash to zoom out, or on the green arrows for adjacent maps.


METAR-TAF: